Time;durP1;ratioP1;P1;durP2;ratioP2;P2;SDS_P1;SDS_P2;PMS_P1;PMS_P2;Temp;Humidity;BMP_temperature;BMP_pressure;BME280_temperature;BME280_humidity;BME280_pressure;Samples;Min_cycle;Max_cycle;Signal;HPM_P1;HPM_P2
2023/03/12 00:02:23;;;;;;;3.50;1.50;;;;;;;25.51;33.55;99028.22;4483352;32;33823;-56
2023/03/12 00:04:51;;;;;;;3.83;1.65;;;;;;;25.50;33.60;99033.94;4483449;32;33961;-47
2023/03/12 00:07:18;;;;;;;2.65;1.33;;;;;;;25.48;33.64;99033.37;4482365;32;33316;-51
2023/03/12 00:09:46;;;;;;;3.00;1.48;;;;;;;25.47;33.64;99043.50;4480335;32;33892;-49
2023/03/12 00:12:13;;;;;;;3.28;1.48;;;;;;;25.45;33.73;99046.47;4479684;32;33528;-48
2023/03/12 00:14:41;;;;;;;4.12;1.10;;;;;;;25.44;33.83;99050.28;4480480;32;32564;-56
2023/03/12 00:17:09;;;;;;;3.15;1.60;;;;;;;25.41;33.95;99047.22;4469401;32;33127;-54
2023/03/12 00:19:36;;;;;;;2.45;1.30;;;;;;;25.40;33.91;99059.25;4470965;32;33665;-54
2023/03/12 00:22:04;;;;;;;3.30;1.35;;;;;;;25.38;33.91;99061.41;4483340;32;34907;-56
2023/03/12 00:24:31;;;;;;;5.00;1.67;;;;;;;25.37;33.93;99067.97;4483348;32;34595;-56
2023/03/12 00:26:59;;;;;;;2.35;1.10;;;;;;;25.36;33.95;99071.75;4483141;32;33928;-56
2023/03/12 00:29:26;;;;;;;4.30;1.27;;;;;;;25.33;33.94;99064.91;4483661;32;33988;-55
2023/03/12 00:31:54;;;;;;;3.78;1.45;;;;;;;25.33;33.95;99067.66;4485453;32;34090;-51
2023/03/12 00:34:22;;;;;;;2.70;1.30;;;;;;;25.31;33.96;99072.53;4485118;32;34271;-54
2023/03/12 00:36:49;;;;;;;3.87;1.40;;;;;;;25.30;33.99;99073.63;4485090;32;34034;-49
2023/03/12 00:39:17;;;;;;;5.30;1.52;;;;;;;25.30;34.00;99072.78;4485199;32;34628;-51
2023/03/12 00:41:45;;;;;;;4.30;1.50;;;;;;;25.28;34.08;99074.97;4485266;32;33343;-55
2023/03/12 00:44:12;;;;;;;2.95;1.25;;;;;;;25.26;34.08;99077.94;4485532;32;33795;-54
2023/03/12 00:46:39;;;;;;;4.85;1.52;;;;;;;25.25;34.09;99089.13;4485112;32;34043;-54
2023/03/12 00:49:07;;;;;;;3.00;1.52;;;;;;;25.24;34.10;99091.03;4483813;32;34510;-47
2023/03/12 00:51:35;;;;;;;4.40;1.65;;;;;;;25.23;34.07;99094.00;4485068;32;34777;-55
2023/03/12 00:54:03;;;;;;;5.90;1.75;;;;;;;25.21;34.16;99097.00;4485346;32;33464;-49
2023/03/12 00:56:31;;;;;;;4.65;1.30;;;;;;;25.19;34.20;99097.25;4484006;32;33583;-51
2023/03/12 00:58:58;;;;;;;3.10;1.27;;;;;;;25.18;34.23;99101.06;4485130;32;34539;-54
2023/03/12 01:01:26;;;;;;;3.87;1.37;;;;;;;25.18;34.19;99106.53;4485003;32;34000;-54
2023/03/12 01:03:54;;;;;;;4.47;1.58;;;;;;;25.16;34.21;99111.41;4485200;32;33694;-54
2023/03/12 01:06:22;;;;;;;5.25;1.45;;;;;;;25.16;34.25;99113.31;4484881;32;33153;-50
2023/03/12 01:08:49;;;;;;;2.80;1.35;;;;;;;25.15;34.28;99122.59;4484794;32;34453;-53
2023/03/12 01:11:18;;;;;;;3.53;1.40;;;;;;;25.14;34.38;99121.75;4484941;32;34763;-51
2023/03/12 01:13:45;;;;;;;3.22;1.30;;;;;;;25.11;34.39;99116.81;4485092;32;33944;-55
2023/03/12 01:16:13;;;;;;;3.35;1.25;;;;;;;25.10;34.46;99120.62;4484899;32;33348;-51
2023/03/12 01:18:41;;;;;;;5.32;1.20;;;;;;;25.09;34.51;99118.97;4476381;32;33298;-53
2023/03/12 01:21:08;;;;;;;5.05;1.65;;;;;;;25.08;34.55;99122.75;4482780;32;34030;-53
2023/03/12 01:23:36;;;;;;;3.08;1.37;;;;;;;25.07;34.58;99121.12;4480393;32;32980;-51
2023/03/12 01:26:04;;;;;;;7.15;1.67;;;;;;;25.06;34.57;99126.81;4469265;32;34028;-52
2023/03/12 01:28:31;;;;;;;2.45;1.40;;;;;;;25.06;34.68;99137.72;4469365;32;34676;-49
2023/03/12 01:31:05;;;;;;;4.60;1.20;;;;;;;25.04;34.75;99131.69;4468887;32;33742;-55
2023/03/12 01:33:33;;;;;;;3.42;1.40;;;;;;;25.04;34.81;99132.53;4469102;32;33828;-56
2023/03/12 01:36:01;;;;;;;3.17;1.20;;;;;;;25.02;34.79;99134.66;4473744;32;34010;-54
2023/03/12 01:38:28;;;;;;;3.05;1.30;;;;;;;25.01;34.76;99145.84;4484571;32;33786;-55
2023/03/12 01:40:56;;;;;;;5.43;1.27;;;;;;;24.99;34.81;99140.63;4484198;32;33659;-55
2023/03/12 01:43:32;;;;;;;5.45;1.48;;;;;;;24.98;34.92;99135.44;4480843;32;33903;-56
2023/03/12 01:46:22;;;;;;;5.45;1.30;;;;;;;24.99;34.97;99139.81;4484519;32;33377;-55
2023/03/12 01:49:11;;;;;;;2.62;1.20;;;;;;;24.99;35.00;99137.91;4484312;32;33618;-51
2023/03/12 01:51:56;;;;;;;5.43;1.30;;;;;;;24.96;35.10;99140.31;4483492;32;33617;-56
2023/03/12 01:54:37;;;;;;;2.78;1.50;;;;;;;24.94;35.07;99137.84;4470277;32;32607;-54
2023/03/12 01:57:07;;;;;;;3.37;1.15;;;;;;;24.91;35.11;99132.91;4484714;32;34136;-52
2023/03/12 01:59:44;;;;;;;3.22;1.25;;;;;;;24.91;35.16;99141.09;4482853;32;34222;-50
2023/03/12 02:02:13;;;;;;;3.80;1.37;;;;;;;24.90;35.11;99147.59;4468556;32;35545;-55
2023/03/12 02:04:41;;;;;;;3.15;1.20;;;;;;;24.87;35.16;99140.75;4467314;32;33450;-54
2023/03/12 02:07:13;;;;;;;6.62;1.30;;;;;;;24.86;35.16;99144.56;4467629;32;33170;-50
2023/03/12 02:09:42;;;;;;;3.12;1.33;;;;;;;24.86;35.20;99150.03;4471334;32;33972;-51
2023/03/12 02:12:10;;;;;;;3.10;1.10;;;;;;;24.84;35.21;99162.25;4484016;32;34031;-47
2023/03/12 02:14:38;;;;;;;2.55;1.33;;;;;;;24.84;35.17;99164.97;4484242;32;34656;-54
2023/03/12 02:17:05;;;;;;;3.00;1.27;;;;;;;24.83;35.20;99168.78;4482953;32;33707;-49
2023/03/12 02:19:43;;;;;;;2.47;0.95;;;;;;;24.83;35.29;99179.72;4482972;32;34059;-51
2023/03/12 02:22:10;;;;;;;3.33;1.23;;;;;;;24.82;35.32;99187.06;4470626;32;33773;-55
2023/03/12 02:24:51;;;;;;;3.25;1.20;;;;;;;24.81;35.34;99184.59;4482765;32;33616;-50
2023/03/12 02:27:19;;;;;;;2.40;1.20;;;;;;;24.82;35.30;99180.78;4482939;32;34165;-52
2023/03/12 02:29:46;;;;;;;4.50;1.08;;;;;;;24.78;35.31;99185.91;4483251;32;33715;-56
2023/03/12 02:32:18;;;;;;;4.60;1.50;;;;;;;24.78;35.35;99193.28;4482742;32;34653;-51
2023/03/12 02:34:46;;;;;;;2.78;1.20;;;;;;;24.76;35.34;99190.81;4482959;32;33860;-50
2023/03/12 02:37:14;;;;;;;3.22;1.27;;;;;;;24.76;35.31;99188.09;4479521;32;33200;-53
2023/03/12 02:39:41;;;;;;;3.15;1.40;;;;;;;24.75;35.34;99183.69;4468437;32;33819;-51
2023/03/12 02:42:09;;;;;;;4.10;1.23;;;;;;;24.75;35.36;99189.12;4467293;32;34126;-53
2023/03/12 02:44:37;;;;;;;2.08;0.90;;;;;;;24.73;35.35;99196.75;4466788;32;34154;-56
2023/03/12 02:47:04;;;;;;;3.28;1.20;;;;;;;24.73;35.36;99204.12;4468416;32;33814;-53
2023/03/12 02:49:32;;;;;;;3.70;1.20;;;;;;;24.73;35.33;99206.84;4468379;32;34796;-54
2023/03/12 02:52:00;;;;;;;2.47;1.10;;;;;;;24.72;35.32;99205.19;4467916;32;33819;-56
2023/03/12 02:54:28;;;;;;;4.57;1.17;;;;;;;24.70;35.33;99202.69;4465777;32;33532;-52
2023/03/12 02:56:56;;;;;;;2.70;1.20;;;;;;;24.72;35.36;99213.38;4468590;32;33882;-55
2023/03/12 02:59:25;;;;;;;3.03;1.23;;;;;;;24.70;35.39;99219.06;4468132;32;34001;-55
2023/03/12 03:01:57;;;;;;;3.37;1.50;;;;;;;24.68;35.38;99224.78;4467998;32;34087;-53
2023/03/12 03:04:29;;;;;;;6.50;1.15;;;;;;;24.69;35.38;99226.44;4468139;32;33991;-49
2023/03/12 03:06:57;;;;;;;2.90;1.05;;;;;;;24.67;35.45;99239.50;4468224;32;32909;-52
2023/03/12 03:09:24;;;;;;;3.62;1.23;;;;;;;24.67;35.42;99247.69;4469356;32;34631;-51
2023/03/12 03:11:52;;;;;;;1.67;1.00;;;;;;;24.67;35.45;99264.06;4483976;32;34130;-56
2023/03/12 03:14:20;;;;;;;4.15;1.20;;;;;;;24.66;35.46;99267.00;4483889;32;33912;-53
2023/03/12 03:16:48;;;;;;;4.87;1.10;;;;;;;24.65;35.48;99258.00;4483934;32;33074;-55
2023/03/12 03:19:17;;;;;;;2.00;1.15;;;;;;;24.64;35.47;99264.53;4483626;32;34560;-56
2023/03/12 03:21:44;;;;;;;2.75;1.35;;;;;;;24.63;35.53;99260.16;4483673;32;34761;-53
2023/03/12 03:24:12;;;;;;;1.65;1.10;;;;;;;24.63;35.47;99273.00;4483870;32;33923;-51
2023/03/12 03:26:39;;;;;;;1.85;1.00;;;;;;;24.62;35.46;99277.63;4483769;32;32975;-56
2023/03/12 03:29:07;;;;;;;2.55;1.40;;;;;;;24.60;35.48;99268.84;4483750;32;33456;-53
2023/03/12 03:31:35;;;;;;;2.95;1.27;;;;;;;24.61;35.48;99280.56;4484029;32;34394;-56
2023/03/12 03:34:03;;;;;;;3.42;1.15;;;;;;;24.60;35.46;99281.66;4483663;32;33550;-53
2023/03/12 03:36:30;;;;;;;1.70;1.08;;;;;;;24.58;35.49;99281.09;4483854;32;33823;-55
2023/03/12 03:38:58;;;;;;;3.70;1.10;;;;;;;24.58;35.50;99294.72;4468098;32;33414;-51
2023/03/12 03:41:27;;;;;;;3.70;1.35;;;;;;;24.58;35.51;99295.53;4468086;32;33431;-53
2023/03/12 03:43:56;;;;;;;2.15;1.00;;;;;;;24.57;35.54;99303.94;4482219;32;34160;-54
2023/03/12 03:46:24;;;;;;;2.85;1.10;;;;;;;24.55;35.55;99293.31;4483335;32;33301;-55
2023/03/12 03:48:52;;;;;;;2.80;1.30;;;;;;;24.57;35.62;99284.84;4482310;32;34710;-55
2023/03/12 03:51:20;;;;;;;6.87;1.30;;;;;;;24.55;35.62;99287.03;4483695;31;34116;-55
2023/03/12 03:53:48;;;;;;;2.90;1.10;;;;;;;24.54;35.66;99296.28;4483484;32;33437;-54
2023/03/12 03:56:16;;;;;;;2.40;1.10;;;;;;;24.53;35.67;99302.78;4483432;32;33424;-53
2023/03/12 03:58:44;;;;;;;3.37;1.15;;;;;;;24.52;35.66;99299.25;4483429;32;33514;-54
2023/03/12 04:01:12;;;;;;;4.55;1.50;;;;;;;24.52;35.68;99287.50;4482080;32;33363;-50
2023/03/12 04:03:40;;;;;;;3.33;1.10;;;;;;;24.51;35.69;99297.59;4483358;32;34644;-55
2023/03/12 04:06:08;;;;;;;3.08;1.00;;;;;;;24.50;35.67;99293.22;4483023;32;33289;-53
2023/03/12 04:08:36;;;;;;;3.20;1.12;;;;;;;24.50;35.70;99301.41;4483574;32;33434;-55
2023/03/12 04:11:08;;;;;;;2.58;1.30;;;;;;;24.49;35.69;99304.38;4471167;32;34759;-52
2023/03/12 04:13:36;;;;;;;2.03;1.17;;;;;;;24.49;35.76;99313.38;4467644;32;34916;-55
2023/03/12 04:16:04;;;;;;;4.57;1.20;;;;;;;24.48;35.76;99316.34;4467487;32;34060;-53
2023/03/12 04:18:32;;;;;;;4.75;0.93;;;;;;;24.47;35.75;99312.78;4467532;32;33897;-55
2023/03/12 04:20:59;;;;;;;2.95;1.10;;;;;;;24.48;35.77;99322.66;4467316;32;33510;-50
2023/03/12 04:23:27;;;;;;;4.70;1.23;;;;;;;24.47;35.75;99329.16;4467364;32;33942;-51
2023/03/12 04:25:55;;;;;;;1.90;0.98;;;;;;;24.46;35.80;99337.59;4467455;32;32825;-50
2023/03/12 04:28:22;;;;;;;4.80;1.30;;;;;;;24.45;35.82;99342.22;4467536;32;34162;-52
2023/03/12 04:31:00;;;;;;;3.72;1.37;;;;;;;24.45;35.80;99344.13;4467170;32;34023;-54
2023/03/12 04:33:30;;;;;;;6.78;1.10;;;;;;;24.43;35.81;99358.84;4467329;32;33516;-55
2023/03/12 04:35:59;;;;;;;5.60;1.27;;;;;;;24.41;35.83;99371.88;4467052;32;33470;-55
2023/03/12 04:38:26;;;;;;;2.40;1.20;;;;;;;24.42;35.79;99381.69;4479242;32;34657;-52
2023/03/12 04:40:58;;;;;;;1.75;1.08;;;;;;;24.39;35.82;99387.66;4482382;32;33743;-51
2023/03/12 04:43:27;;;;;;;2.83;1.10;;;;;;;24.40;35.88;99385.75;4482753;32;34583;-53
2023/03/12 04:45:55;;;;;;;2.00;1.10;;;;;;;24.39;35.82;99390.38;4482700;32;34086;-55
2023/03/12 04:48:23;;;;;;;3.05;1.00;;;;;;;24.38;35.83;99388.69;4482693;32;34519;-55
2023/03/12 04:50:51;;;;;;;2.58;1.10;;;;;;;24.39;35.90;99397.75;4482820;32;33980;-56
2023/03/12 04:53:18;;;;;;;2.20;1.00;;;;;;;24.38;35.85;99398.78;4482742;32;33399;-57
2023/03/12 04:55:46;;;;;;;4.07;1.23;;;;;;;24.38;35.84;99396.06;4482861;32;33516;-56
2023/03/12 04:58:15;;;;;;;2.55;1.05;;;;;;;24.36;35.88;99403.62;4482356;32;34657;-52
2023/03/12 05:00:43;;;;;;;2.37;0.90;;;;;;;24.37;35.85;99408.03;4481499;32;33917;-54
2023/03/12 05:03:11;;;;;;;1.92;1.10;;;;;;;24.35;35.84;99413.72;4482487;32;33728;-55
2023/03/12 05:05:39;;;;;;;2.95;1.10;;;;;;;24.34;35.83;99401.16;4482200;32;33543;-52
2023/03/12 05:08:06;;;;;;;2.95;1.12;;;;;;;24.34;35.88;99406.63;4482197;32;34076;-54
2023/03/12 05:10:34;;;;;;;3.47;1.12;;;;;;;24.34;35.87;99406.63;4474018;32;33994;-55
2023/03/12 05:13:01;;;;;;;2.10;1.37;;;;;;;24.33;35.87;99404.94;4466802;32;33866;-54
2023/03/12 05:15:29;;;;;;;1.50;0.85;;;;;;;24.32;35.89;99399.72;4466772;32;34080;-51
2023/03/12 05:17:57;;;;;;;5.32;1.40;;;;;;;24.33;35.98;99409.56;4468525;32;33814;-57
2023/03/12 05:20:24;;;;;;;1.80;1.10;;;;;;;24.31;35.91;99407.09;4468813;32;34878;-54
2023/03/12 05:22:52;;;;;;;3.40;1.15;;;;;;;24.31;35.90;99411.72;4468863;32;33889;-56
2023/03/12 05:25:19;;;;;;;1.92;1.05;;;;;;;24.31;35.94;99411.72;4468894;32;33066;-52
2023/03/12 05:27:47;;;;;;;2.95;1.08;;;;;;;24.30;35.93;99423.69;4468928;32;34649;-55
2023/03/12 05:30:15;;;;;;;2.75;1.20;;;;;;;24.29;35.95;99428.28;4469004;32;34454;-55
2023/03/12 05:32:42;;;;;;;1.45;0.93;;;;;;;24.30;35.92;99437.31;4468691;32;33838;-56
2023/03/12 05:35:10;;;;;;;2.35;1.20;;;;;;;24.28;35.89;99437.53;4468867;32;33381;-53
2023/03/12 05:37:41;;;;;;;2.17;1.00;;;;;;;24.29;35.90;99452.00;4476004;32;34095;-51
2023/03/12 05:40:10;;;;;;;4.75;1.58;;;;;;;24.28;35.93;99450.34;4484171;32;34179;-54
2023/03/12 05:42:38;;;;;;;2.50;1.17;;;;;;;24.26;35.92;99447.06;4476754;32;33268;-50
2023/03/12 05:45:07;;;;;;;2.87;1.20;;;;;;;24.26;35.92;99447.06;4468913;32;33422;-50
2023/03/12 05:47:35;;;;;;;1.60;1.20;;;;;;;24.26;35.98;99447.06;4468961;32;34589;-50
2023/03/12 05:50:03;;;;;;;1.58;1.08;;;;;;;24.26;35.96;99457.97;4468888;32;33895;-52
2023/03/12 05:52:30;;;;;;;3.45;1.02;;;;;;;24.25;36.00;99459.84;4468873;32;34183;-53
2023/03/12 05:54:58;;;;;;;2.03;1.10;;;;;;;24.25;35.98;99475.34;4468715;32;34080;-51
2023/03/12 05:57:25;;;;;;;1.98;0.90;;;;;;;24.25;35.95;99480.81;4468653;32;34799;-53
2023/03/12 05:59:53;;;;;;;1.77;0.93;;;;;;;24.25;35.95;99486.25;4468700;32;33882;-50
2023/03/12 06:02:21;;;;;;;4.37;1.30;;;;;;;24.24;35.95;99485.44;4468629;32;33492;-55
2023/03/12 06:04:49;;;;;;;2.42;1.20;;;;;;;24.23;35.94;99485.69;4468450;32;33295;-54
2023/03/12 06:07:16;;;;;;;3.12;1.10;;;;;;;24.22;35.92;99486.75;4468785;32;33847;-52
2023/03/12 06:09:44;;;;;;;2.78;1.30;;;;;;;24.22;36.00;99484.03;4471717;32;33831;-56
2023/03/12 06:12:12;;;;;;;2.20;0.95;;;;;;;24.21;35.96;99493.28;4484271;32;34398;-55
2023/03/12 06:14:39;;;;;;;4.57;1.05;;;;;;;24.20;35.98;99503.34;4484465;32;33202;-55
2023/03/12 06:17:07;;;;;;;3.42;1.02;;;;;;;24.19;35.98;99507.97;4484244;32;33712;-55
2023/03/12 06:19:34;;;;;;;2.95;1.00;;;;;;;24.19;35.97;99515.31;4484301;32;34335;-54
2023/03/12 06:22:03;;;;;;;3.67;1.23;;;;;;;24.18;35.96;99519.13;4484366;32;33557;-54
2023/03/12 06:24:30;;;;;;;1.77;1.00;;;;;;;24.18;36.02;99522.66;4484148;32;33329;-55
2023/03/12 06:26:59;;;;;;;2.20;1.23;;;;;;;24.17;36.03;99523.75;4484063;32;34354;-52
2023/03/12 06:29:26;;;;;;;2.70;1.05;;;;;;;24.17;36.09;99521.03;4484411;32;33971;-53
2023/03/12 06:31:54;;;;;;;3.22;0.85;;;;;;;24.17;36.03;99526.47;4484046;32;34015;-54
2023/03/12 06:34:22;;;;;;;1.95;1.10;;;;;;;24.16;36.00;99535.72;4484189;32;33378;-53
2023/03/12 06:36:50;;;;;;;4.62;1.23;;;;;;;24.17;35.96;99540.09;4481983;32;33809;-53
2023/03/12 06:39:17;;;;;;;5.68;1.40;;;;;;;24.16;36.00;99535.72;4484621;31;34109;-56
2023/03/12 06:41:45;;;;;;;4.87;1.50;;;;;;;24.15;36.00;99542.25;4484456;32;33458;-55
2023/03/12 06:44:12;;;;;;;3.37;1.27;;;;;;;24.16;35.42;99548.53;4484422;32;33162;-51
2023/03/12 06:46:40;;;;;;;2.80;1.10;;;;;;;24.16;35.18;99549.34;4484364;32;33439;-54
2023/03/12 06:49:10;;;;;;;6.10;1.60;;;;;;;24.14;35.22;99543.28;4484547;32;33920;-48
2023/03/12 06:51:37;;;;;;;3.75;1.00;;;;;;;24.14;35.16;99551.47;4484371;32;33372;-55
2023/03/12 06:54:05;;;;;;;4.80;1.40;;;;;;;24.13;35.09;99549.00;4484162;32;32912;-53
2023/03/12 06:56:32;;;;;;;3.78;1.33;;;;;;;24.12;35.07;99553.63;4484276;32;34628;-56
2023/03/12 06:59:00;;;;;;;5.62;1.58;;;;;;;24.10;34.99;99555.72;4484181;32;34646;-48
2023/03/12 07:01:27;;;;;;;3.35;1.37;;;;;;;24.11;34.92;99559.31;4484374;32;33478;-57
2023/03/12 07:03:55;;;;;;;3.85;1.35;;;;;;;24.09;34.95;99559.53;4484083;32;32986;-54
2023/03/12 07:06:23;;;;;;;3.72;1.40;;;;;;;24.07;34.92;99575.31;4484238;32;34412;-56
2023/03/12 07:08:51;;;;;;;1.98;1.20;;;;;;;24.05;34.98;99571.97;4483938;32;34107;-51
2023/03/12 07:11:18;;;;;;;3.15;1.45;;;;;;;24.06;34.98;99572.78;4470676;32;34021;-54
2023/03/12 07:13:46;;;;;;;3.85;1.42;;;;;;;24.05;34.98;99571.97;4468484;32;33517;-51
2023/03/12 07:16:13;;;;;;;3.08;1.20;;;;;;;24.04;35.01;99562.12;4467080;32;34054;-54
2023/03/12 07:18:41;;;;;;;2.95;1.40;;;;;;;24.04;35.06;99570.31;4468392;32;34783;-53
2023/03/12 07:21:09;;;;;;;5.12;1.40;;;;;;;24.04;35.01;99567.59;4468394;32;33765;-54
2023/03/12 07:23:36;;;;;;;2.53;1.40;;;;;;;24.04;34.93;99569.50;4468269;32;33399;-56
2023/03/12 07:26:04;;;;;;;2.92;1.70;;;;;;;24.04;34.96;99569.50;4468446;32;34655;-53
2023/03/12 07:28:32;;;;;;;8.43;1.75;;;;;;;24.03;34.88;99581.47;4468360;32;33211;-54
2023/03/12 07:31:03;;;;;;;6.82;1.40;;;;;;;24.02;34.90;99579.81;4468213;32;33983;-53
2023/03/12 07:33:31;;;;;;;5.47;1.65;;;;;;;24.01;34.92;99581.69;4467084;32;33498;-48
2023/03/12 07:35:58;;;;;;;6.20;1.50;;;;;;;24.01;34.93;99580.84;4468300;32;34084;-47
2023/03/12 07:38:26;;;;;;;4.28;1.23;;;;;;;24.00;34.93;99595.56;4467990;32;34077;-48
2023/03/12 07:40:54;;;;;;;3.85;1.60;;;;;;;23.99;34.89;99589.28;4479762;32;34607;-47
2023/03/12 07:43:22;;;;;;;3.10;1.60;;;;;;;23.99;34.93;99596.63;4483883;32;33354;-47
2023/03/12 07:45:50;;;;;;;3.80;1.65;;;;;;;23.99;34.94;99599.34;4482580;32;34339;-49
2023/03/12 07:48:18;;;;;;;4.85;1.55;;;;;;;24.00;34.95;99601.84;4483817;32;34579;-55
2023/03/12 07:50:46;;;;;;;7.93;1.40;;;;;;;23.99;35.07;99597.44;4483668;32;34626;-50
2023/03/12 07:53:14;;;;;;;2.90;1.45;;;;;;;23.99;35.01;99597.44;4483522;32;34089;-48
2023/03/12 07:55:43;;;;;;;2.95;1.35;;;;;;;24.00;34.97;99593.66;4483610;32;33956;-48
2023/03/12 07:58:12;;;;;;;3.55;1.60;;;;;;;24.01;34.95;99603.47;4483602;32;33529;-47
2023/03/12 08:00:40;;;;;;;7.10;1.58;;;;;;;24.02;34.88;99610.63;4483608;32;34371;-60
2023/03/12 08:03:08;;;;;;;13.73;2.40;;;;;;;24.03;34.79;99606.00;4483539;32;33267;-56
2023/03/12 08:05:36;;;;;;;7.78;2.80;;;;;;;24.04;34.12;99604.91;4483475;32;33715;-59
2023/03/12 08:08:03;;;;;;;5.03;2.58;;;;;;;23.97;31.65;99609.63;4471809;32;34475;-59
2023/03/12 08:10:31;;;;;;;4.72;1.80;;;;;;;23.95;33.07;99604.44;4475907;32;33770;-52
2023/03/12 08:12:58;;;;;;;3.97;2.10;;;;;;;23.95;33.66;99609.88;4479114;32;33171;-58
2023/03/12 08:15:26;;;;;;;5.93;2.00;;;;;;;23.95;33.80;99609.88;4474147;32;33831;-58
2023/03/12 08:17:54;;;;;;;13.50;2.10;;;;;;;23.96;33.76;99614.25;4469204;32;33576;-58
2023/03/12 08:20:21;;;;;;;4.37;1.77;;;;;;;23.95;33.87;99618.06;4469617;32;33539;-57
2023/03/12 08:22:49;;;;;;;6.43;1.90;;;;;;;23.96;33.87;99616.16;4468004;32;34126;-58
2023/03/12 08:25:19;;;;;;;6.07;1.92;;;;;;;23.97;33.88;99626.84;4467551;32;33882;-59
2023/03/12 08:27:47;;;;;;;;;;;;;;;23.97;33.92;99626.84;4467730;32;33880;-57
2023/03/12 08:30:14;;;;;;;3.53;1.60;;;;;;;24.09;33.77;99614.03;4467452;32;33932;-58
2023/03/12 08:32:42;;;;;;;4.78;1.70;;;;;;;24.00;33.93;99607.28;4482366;32;33124;-53
2023/03/12 08:35:09;;;;;;;5.28;1.80;;;;;;;23.98;33.98;99603.97;4482985;32;33566;-58
2023/03/12 08:37:37;;;;;;;3.42;1.90;;;;;;;23.99;34.00;99616.53;4483172;32;33302;-55
2023/03/12 08:40:12;;;;;;;5.82;1.90;;;;;;;23.98;34.00;99627.66;4483120;32;33586;-54
2023/03/12 08:42:40;;;;;;;5.22;1.77;;;;;;;23.98;33.98;99627.66;4482924;32;33447;-55
2023/03/12 08:45:09;;;;;;;4.57;1.70;;;;;;;23.97;33.87;99629.56;4483081;32;34708;-59
2023/03/12 08:47:40;;;;;;;6.05;1.98;;;;;;;23.98;33.86;99630.41;4482980;32;33881;-57
2023/03/12 08:50:10;;;;;;;4.35;1.60;;;;;;;23.96;33.87;99627.87;4481594;32;33537;-55
2023/03/12 08:52:37;;;;;;;4.87;1.97;;;;;;;23.97;33.85;99626.84;4484465;32;33391;-53
2023/03/12 08:55:05;;;;;;;6.57;1.95;;;;;;;23.99;33.82;99621.97;4483882;32;33721;-53
2023/03/12 08:57:33;;;;;;;7.40;2.40;;;;;;;23.97;33.81;99613.22;4485035;32;34501;-56
2023/03/12 09:00:00;;;;;;;14.68;5.97;;;;;;;23.98;33.75;99614.88;4484847;32;34284;-59
2023/03/12 09:02:28;;;;;;;20.25;6.72;;;;;;;23.96;33.70;99614.25;4478229;32;33402;-53
2023/03/12 09:04:56;;;;;;;16.83;8.07;;;;;;;23.97;33.70;99626.84;4476779;32;33433;-56
2023/03/12 09:07:23;;;;;;;24.45;9.73;;;;;;;23.98;33.66;99619.50;4475948;32;34751;-55
2023/03/12 09:09:51;;;;;;;29.58;11.32;;;;;;;23.98;33.62;99616.78;4470021;32;34469;-56
2023/03/12 09:12:18;;;;;;;26.67;10.93;;;;;;;23.95;33.53;99609.88;4465521;32;34856;-57
2023/03/12 09:14:46;;;;;;;26.10;11.73;;;;;;;23.96;33.56;99614.25;4484946;32;33937;-56
2023/03/12 09:17:30;;;;;;;28.45;11.70;;;;;;;23.97;33.49;99612.34;4478471;32;34887;-58
2023/03/12 09:19:57;;;;;;;25.35;11.02;;;;;;;23.97;33.32;99612.34;4470198;32;33861;-55
2023/03/12 09:22:25;;;;;;;26.40;12.02;;;;;;;23.95;33.19;99609.88;4484791;32;33384;-58
2023/03/12 09:24:53;;;;;;;27.02;11.45;;;;;;;23.96;33.09;99618.88;4484602;32;33763;-55
2023/03/12 09:27:21;;;;;;;26.20;10.27;;;;;;;23.95;33.06;99618.06;4484809;32;33893;-58
2023/03/12 09:29:50;;;;;;;25.80;10.90;;;;;;;23.94;33.01;99619.13;4484756;32;34473;-59
2023/03/12 09:32:27;;;;;;;24.25;10.63;;;;;;;23.95;32.91;99622.69;4484716;32;33337;-55
2023/03/12 09:34:55;;;;;;;22.52;9.98;;;;;;;23.94;32.85;99619.13;4484681;32;33828;-53
2023/03/12 09:37:22;;;;;;;25.17;9.02;;;;;;;23.94;32.67;99616.41;4484583;32;34770;-58
2023/03/12 09:39:51;;;;;;;20.70;9.57;;;;;;;23.93;32.57;99617.47;4484615;32;34445;-53
2023/03/12 09:42:29;;;;;;;22.02;9.93;;;;;;;23.93;32.34;99614.75;4484731;32;34169;-57
2023/03/12 09:44:59;;;;;;;19.45;8.77;;;;;;;23.92;32.31;99624.81;4471445;32;34927;-54
2023/03/12 09:47:30;;;;;;;20.58;8.98;;;;;;;23.92;32.40;99615.78;4484638;32;34010;-52
2023/03/12 09:50:12;;;;;;;22.10;9.43;;;;;;;23.92;32.34;99618.50;4457788;32;34242;-54
2023/03/12 09:53:04;;;;;;;19.58;8.88;;;;;;;23.91;32.25;99620.41;4483582;32;34148;-59
2023/03/12 09:55:35;;;;;;;20.83;9.43;;;;;;;23.91;32.25;99614.13;4483803;32;33397;-57
2023/03/12 09:58:03;;;;;;;20.83;9.32;;;;;;;23.91;32.19;99608.69;4469111;32;34380;-59
2023/03/12 10:00:33;;;;;;;19.75;8.45;;;;;;;23.91;32.07;99617.69;4483472;32;33626;-59
2023/03/12 10:03:16;;;;;;;19.60;8.98;;;;;;;23.91;32.04;99614.13;4481517;32;33685;-58
2023/03/12 10:06:15;;;;;;;25.52;9.30;;;;;;;23.92;32.12;99608.47;4483888;32;34685;-50
2023/03/12 10:08:57;;;;;;;19.62;8.35;;;;;;;23.93;32.12;99623.75;4482209;32;34802;-57
2023/03/12 10:11:28;;;;;;;19.65;8.27;;;;;;;23.90;32.04;99621.47;4484150;32;33907;-59
2023/03/12 10:13:59;;;;;;;24.45;9.30;;;;;;;23.91;32.31;99633.22;4483191;32;32204;-56
2023/03/12 10:16:55;;;;;;;21.48;9.10;;;;;;;23.91;32.57;99625.03;4484379;32;33756;-57
2023/03/12 10:19:50;;;;;;;18.73;8.85;;;;;;;23.95;32.79;99626.22;4451801;32;34620;-59
2023/03/12 10:22:30;;;;;;;18.40;8.70;;;;;;;23.98;32.86;99620.31;4484392;32;33962;-55
2023/03/12 10:25:23;;;;;;;20.95;10.18;;;;;;;23.96;33.03;99619.72;4483139;32;33473;-59
2023/03/12 10:27:51;;;;;;;25.83;10.25;;;;;;;24.00;33.07;99637.25;4484217;32;33568;-60
2023/03/12 10:30:22;;;;;;;21.45;8.95;;;;;;;23.98;33.20;99628.50;4484507;32;35148;-57
2023/03/12 10:32:56;;;;;;;21.60;9.52;;;;;;;23.98;33.30;99624.94;4483171;32;33765;-59
2023/03/12 10:35:25;;;;;;;24.90;10.45;;;;;;;24.01;33.38;99638.09;4483290;32;33297;-58
2023/03/12 10:38:03;;;;;;;19.52;8.90;;;;;;;24.02;33.41;99631.59;4478772;32;33835;-59
2023/03/12 10:40:34;;;;;;;26.48;10.23;;;;;;;24.06;33.47;99635.47;4473506;32;34005;-59
2023/03/12 10:43:03;;;;;;;22.13;10.02;;;;;;;24.04;33.55;99637.63;4468700;32;33820;-59
2023/03/12 10:45:39;;;;;;;22.15;9.93;;;;;;;24.05;33.58;99642.84;4467389;32;34250;-54
2023/03/12 10:48:08;;;;;;;24.00;10.20;;;;;;;24.07;33.63;99640.72;4468690;32;34051;-59
2023/03/12 10:50:37;;;;;;;20.80;9.15;;;;;;;24.06;33.72;99644.53;4476576;32;34053;-53
2023/03/12 10:53:27;;;;;;;22.37;9.35;;;;;;;24.08;33.73;99649.72;4476889;32;33626;-58
2023/03/12 10:56:00;;;;;;;24.87;9.57;;;;;;;24.12;33.75;99640.03;4475262;32;33474;-53
2023/03/12 10:58:39;;;;;;;22.52;10.35;;;;;;;24.10;33.93;99645.69;4471070;32;34338;-55
2023/03/12 11:01:22;;;;;;;24.85;11.15;;;;;;;24.10;34.00;99651.13;4478716;32;34808;-58
2023/03/12 11:03:50;;;;;;;23.00;9.50;;;;;;;24.13;34.09;99639.78;4484104;32;34420;-56
2023/03/12 11:06:28;;;;;;;25.15;9.18;;;;;;;24.12;34.09;99649.03;4482967;32;34193;-55
2023/03/12 11:09:08;;;;;;;21.08;9.98;;;;;;;24.14;34.07;99646.06;4481852;32;33614;-52
2023/03/12 11:11:46;;;;;;;21.85;9.95;;;;;;;24.15;34.05;99644.97;4468590;32;34928;-53
2023/03/12 11:14:23;;;;;;;25.58;10.10;;;;;;;24.14;34.06;99648.78;4467149;32;33854;-51
2023/03/12 11:16:51;;;;;;;23.92;8.85;;;;;;;24.15;34.06;99640.38;4468560;32;34127;-52
2023/03/12 11:19:29;;;;;;;20.52;9.45;;;;;;;24.14;34.07;99652.34;4466883;32;34533;-50
2023/03/12 11:22:02;;;;;;;19.30;8.50;;;;;;;24.17;34.10;99648.31;4468404;32;34155;-57
2023/03/12 11:24:29;;;;;;;20.77;9.90;;;;;;;24.15;34.15;99644.97;4468492;32;34589;-58
2023/03/12 11:27:13;;;;;;;19.12;8.88;;;;;;;24.16;34.28;99647.50;4468238;32;33340;-54
2023/03/12 11:29:45;;;;;;;22.42;8.93;;;;;;;24.16;34.28;99643.94;4467077;32;34473;-58
2023/03/12 11:32:22;;;;;;;23.87;8.80;;;;;;;24.16;34.69;99639.31;4467045;32;34675;-55
2023/03/12 11:34:51;;;;;;;19.42;8.77;;;;;;;24.17;34.68;99649.16;4468353;32;34538;-56
2023/03/12 11:37:24;;;;;;;18.90;8.95;;;;;;;24.17;34.70;99648.31;4466918;32;33373;-60
2023/03/12 11:40:29;;;;;;;24.73;9.25;;;;;;;24.17;34.75;99646.41;4468183;32;34659;-51
2023/03/12 11:43:38;;;;;;;21.77;8.95;;;;;;;24.22;34.74;99648.44;4468187;32;33733;-51
2023/03/12 11:46:32;;;;;;;26.20;8.68;;;;;;;24.22;34.51;99643.00;4469162;32;33558;-57